Archival Weather

Heathrow

London, United Kingdom (EGLL)

Report from: Tuesday, September 19, 2023 11:50 PM BST
Current time: Sunday, July 14, 2024 2:34 AM BST

Current weather – Weather history – Daily summaries
Weather forecast

Temperature18.0°C (64.4°F)
Dew point14.0°C (57.2°F)
Winds 14 kts (7.2 m/s, 16.1 mph) Southwest (220°)
Visibility6.2 mi. (10 km)
Clouds Ceiling: Overcast 1,700 ft. (518 m)
Altimeter29.65 in.Hg (1004 mB)
Relative humidity77 %
Density altitude888 ft. (271 m)
Remarks Fully automated report
Flight conditions Marginal Visual Meteorological Conditions
Raw dataEGLL 192250Z AUTO 22014KT 9999 OVC017 18/14 Q1004
An error has occurred. This application may no longer respond until reloaded. Reload 🗙